Terminal Aerodrome Forecast
Issued by NWS Upton, NY

Home | Current Version | Previous Version | Text Only | Print | Product List | Glossary On
Versions: 1 2 3 4 5 6 7 8 9 10 11 12 13 14 15 16 17 18 19 20 21 22 23 24 25 26 27 28 29 30 31 32 33 34 35 36
227
FTUS41 KOKX 241929 AAB
TAFISP
TAF AMD
KISP 241929Z 2419/2518 30009KT P6SM VCTS BKN025CB BKN050
      TEMPO 2419/2420 3SM -TSRA BKN025CB
     FM242100 28007KT P6SM OVC050
     FM250300 VRB03KT P6SM BKN250
     FM251300 28007KT P6SM SKC=

USA.gov is the U.S. government's official web portal to all federal, state and local government web resources and services.